createdAt,value
2023-02-11T00:02:27.960Z,59.45
2023-02-11T00:06:00.584Z,61.62
2023-02-11T00:09:26.343Z,65.52
2023-02-11T00:12:53.123Z,63.79
2023-02-11T00:16:21.089Z,61.92
2023-02-11T00:19:50.426Z,60.81
2023-02-11T00:23:16.214Z,60.27
2023-02-11T00:26:42.861Z,59.63
2023-02-11T00:30:09.621Z,59.79
2023-02-11T00:33:35.493Z,60.59
2023-02-11T00:37:01.062Z,59.66
2023-02-11T00:40:26.887Z,59.14
2023-02-11T00:43:53.118Z,60.87
2023-02-11T00:47:19.046Z,65.48
2023-02-11T00:50:44.798Z,63.85
2023-02-11T00:54:11.133Z,61.70
2023-02-11T00:57:38.110Z,60.75
2023-02-11T01:01:03.802Z,59.37
2023-02-11T01:04:29.797Z,59.97
2023-02-11T01:07:55.616Z,64.40
2023-02-11T01:11:21.822Z,62.61
2023-02-11T01:14:47.604Z,61.16
2023-02-11T01:18:15.502Z,60.06
2023-02-11T01:21:45.364Z,59.13
2023-02-11T01:25:11.631Z,60.76
2023-02-11T01:28:37.692Z,64.75
2023-02-11T01:32:03.317Z,63.57
2023-02-11T01:35:29.312Z,61.26
2023-02-11T01:38:56.196Z,59.76
2023-02-11T01:42:24.145Z,59.48
2023-02-11T01:46:01.903Z,63.48
2023-02-11T01:49:32.928Z,63.51
2023-02-11T01:53:20.058Z,61.43
2023-02-11T01:57:05.505Z,61.29
2023-02-11T02:00:34.573Z,59.61
2023-02-11T02:04:03.723Z,58.67
2023-02-11T02:07:34.379Z,63.32
2023-02-11T02:11:01.047Z,63.00
2023-02-11T02:14:27.446Z,60.31
2023-02-11T02:18:02.701Z,59.10
2023-02-11T02:21:50.835Z,62.24
2023-02-11T02:25:31.967Z,63.86
2023-02-11T02:29:13.985Z,61.71
2023-02-11T02:32:44.270Z,60.04
2023-02-11T02:36:16.082Z,60.38
2023-02-11T02:39:41.861Z,63.73
2023-02-11T02:43:09.972Z,62.63
2023-02-11T02:46:37.332Z,61.06
2023-02-11T02:50:03.622Z,60.16
2023-02-11T02:53:33.428Z,59.65
2023-02-11T02:57:02.865Z,59.92
2023-02-11T03:00:34.769Z,64.07
2023-02-11T03:04:04.557Z,63.06
2023-02-11T03:07:37.030Z,61.87
2023-02-11T03:11:04.421Z,60.54
2023-02-11T03:14:31.790Z,60.19
2023-02-11T03:18:00.180Z,61.18
2023-02-11T03:21:26.456Z,60.18
2023-02-11T03:24:52.263Z,59.81
2023-02-11T03:28:23.540Z,62.55
2023-02-11T03:31:55.576Z,63.70
2023-02-11T03:35:24.439Z,61.72
2023-02-11T03:38:52.813Z,60.53
2023-02-11T03:42:20.348Z,60.23
2023-02-11T03:45:47.091Z,59.87
2023-02-11T03:49:14.709Z,63.24
2023-02-11T03:52:40.411Z,63.37
2023-02-11T03:56:07.840Z,61.06
2023-02-11T03:59:33.420Z,59.83
2023-02-11T04:02:59.389Z,60.05
2023-02-11T04:06:25.327Z,59.76
2023-02-11T04:09:51.955Z,63.87
2023-02-11T04:13:18.628Z,63.28
2023-02-11T04:16:44.544Z,62.38
2023-02-11T04:20:11.461Z,61.93
2023-02-11T04:23:37.339Z,61.62
2023-02-11T04:27:03.279Z,60.93
2023-02-11T04:30:29.072Z,59.98
2023-02-11T04:33:55.747Z,61.65
2023-02-11T04:37:21.356Z,64.92
2023-02-11T04:40:47.375Z,63.41
2023-02-11T04:44:13.224Z,63.58
2023-02-11T04:47:38.884Z,62.56
2023-02-11T04:51:04.725Z,62.34
2023-02-11T04:54:30.575Z,61.65
2023-02-11T04:57:56.412Z,61.09
2023-02-11T05:01:22.249Z,61.68
2023-02-11T05:04:48.045Z,62.64
2023-02-11T05:08:14.167Z,62.12
2023-02-11T05:11:40.521Z,61.01
2023-02-11T05:15:07.135Z,61.35
2023-02-11T05:18:32.855Z,62.76
2023-02-11T05:22:03.138Z,63.13
2023-02-11T05:25:29.515Z,63.25
2023-02-11T05:28:55.296Z,62.72
2023-02-11T05:32:23.258Z,61.72
2023-02-11T05:35:49.426Z,62.08
2023-02-11T05:39:15.665Z,60.91
2023-02-11T05:42:41.474Z,61.36
2023-02-11T05:46:07.660Z,61.52
2023-02-11T05:49:33.449Z,60.69
2023-02-11T05:52:59.134Z,62.07
2023-02-11T05:56:25.096Z,61.78
2023-02-11T05:59:50.954Z,61.02
2023-02-11T06:03:17.815Z,60.72
2023-02-11T06:06:43.863Z,61.49
2023-02-11T06:10:00.856Z,62.42
2023-02-11T06:13:26.799Z,62.29
2023-02-11T06:16:52.612Z,62.34
2023-02-11T06:20:19.430Z,61.89
2023-02-11T06:23:45.040Z,61.21
2023-02-11T06:27:11.070Z,63.25
2023-02-11T06:30:37.086Z,62.29
2023-02-11T06:34:03.134Z,63.04
2023-02-11T06:37:29.310Z,63.79
2023-02-11T06:40:55.059Z,62.49
2023-02-11T06:44:20.629Z,62.84
2023-02-11T06:47:46.590Z,62.64
2023-02-11T06:51:13.195Z,63.93
2023-02-11T06:54:39.275Z,63.93
2023-02-11T06:58:04.923Z,64.39
2023-02-11T07:01:30.917Z,63.96
2023-02-11T07:04:56.956Z,64.66
2023-02-11T07:08:23.584Z,65.20
2023-02-11T07:11:49.203Z,65.07
2023-02-11T07:15:14.964Z,65.11
2023-02-11T07:18:40.871Z,65.28
2023-02-11T07:22:06.673Z,65.63
2023-02-11T07:25:52.973Z,65.05
2023-02-11T07:29:18.839Z,64.51
2023-02-11T07:32:44.696Z,64.19
2023-02-11T07:36:12.637Z,64.35
2023-02-11T07:39:38.402Z,63.70
2023-02-11T07:43:04.165Z,65.32
2023-02-11T07:46:30.104Z,65.06
2023-02-11T07:49:56.737Z,65.02
2023-02-11T07:53:25.623Z,66.23
2023-02-11T07:56:51.338Z,65.26
2023-02-11T08:00:20.827Z,65.21
2023-02-11T08:03:47.026Z,66.31
2023-02-11T08:07:16.116Z,67.60
2023-02-11T08:10:41.761Z,67.98
2023-02-11T08:14:07.750Z,67.32
2023-02-11T08:17:53.743Z,68.31
2023-02-11T08:21:20.611Z,68.22
2023-02-11T08:24:46.447Z,68.17
2023-02-11T08:28:12.267Z,68.94
2023-02-11T08:31:39.393Z,67.16
2023-02-11T08:35:07.978Z,66.76
2023-02-11T08:38:33.679Z,66.21
2023-02-11T08:41:59.749Z,67.16
2023-02-11T08:45:25.455Z,68.07
2023-02-11T08:48:51.438Z,67.00
2023-02-11T08:52:17.393Z,67.72
2023-02-11T08:55:49.065Z,69.22
2023-02-11T08:59:15.498Z,68.73
2023-02-11T09:02:33.995Z,67.11
2023-02-11T09:06:01.182Z,67.44
2023-02-11T09:09:26.874Z,67.90
2023-02-11T09:12:52.646Z,66.45
2023-02-11T09:16:20.981Z,67.35
2023-02-11T09:19:46.730Z,67.14
2023-02-11T09:23:12.699Z,67.05
2023-02-11T09:26:40.466Z,66.42
2023-02-11T09:30:06.854Z,66.68
2023-02-11T09:33:32.959Z,65.65
2023-02-11T09:36:58.524Z,66.28
2023-02-11T09:40:24.530Z,65.26
2023-02-11T09:43:52.960Z,64.83
2023-02-11T09:47:25.830Z,65.33
2023-02-11T09:50:52.835Z,65.33
2023-02-11T09:54:23.120Z,64.45
2023-02-11T09:57:48.790Z,65.56
2023-02-11T10:01:22.920Z,66.02
2023-02-11T10:05:01.840Z,67.18
2023-02-11T10:08:31.730Z,67.19
2023-02-11T10:12:04.202Z,67.91
2023-02-11T10:15:39.092Z,66.40
2023-02-11T10:19:13.921Z,65.88
2023-02-11T10:22:42.452Z,65.83
2023-02-11T10:26:12.972Z,65.87
2023-02-11T10:29:42.088Z,66.66
2023-02-11T10:33:12.612Z,67.05
2023-02-11T10:36:38.786Z,68.49
2023-02-11T10:40:14.956Z,68.27
2023-02-11T10:43:43.417Z,68.31
2023-02-11T10:47:12.347Z,67.64
2023-02-11T10:50:38.410Z,68.96
2023-02-11T10:54:21.394Z,69.58
2023-02-11T10:57:53.940Z,69.04
2023-02-11T11:01:24.625Z,68.30
2023-02-11T11:04:50.860Z,68.32
2023-02-11T11:08:18.561Z,68.86
2023-02-11T11:11:52.161Z,67.73
2023-02-11T11:15:21.732Z,67.91
2023-02-11T11:18:37.485Z,67.54
2023-02-11T11:22:03.214Z,68.45
2023-02-11T11:25:30.451Z,68.49
2023-02-11T11:28:58.912Z,69.77
2023-02-11T11:32:26.717Z,69.33
2023-02-11T11:36:01.610Z,68.02
2023-02-11T11:39:28.924Z,68.51
2023-02-11T11:43:09.123Z,70.29
2023-02-11T11:46:36.464Z,73.54
2023-02-11T11:50:18.973Z,72.90
2023-02-11T11:53:49.294Z,72.93
2023-02-11T11:57:13.536Z,74.45
2023-02-11T12:00:45.611Z,73.49
2023-02-11T12:04:20.580Z,73.27
2023-02-11T12:07:54.965Z,74.61
2023-02-11T12:11:27.329Z,75.48
2023-02-11T12:14:59.920Z,76.39
2023-02-11T12:18:47.250Z,77.83
2023-02-11T12:22:14.078Z,77.55
2023-02-11T12:25:30.905Z,77.76
2023-02-11T12:28:44.501Z,78.58
2023-02-11T12:32:16.153Z,79.55
2023-02-11T12:35:33.596Z,78.85
2023-02-11T12:38:48.187Z,76.73
2023-02-11T12:42:41.999Z,77.66
2023-02-11T12:46:01.540Z,78.85
2023-02-11T12:49:18.614Z,77.31
2023-02-11T12:52:36.994Z,77.22
2023-02-11T12:56:05.526Z,78.05
2023-02-11T12:59:45.144Z,76.98
2023-02-11T13:02:56.776Z,77.34
2023-02-11T13:06:04.711Z,77.40
2023-02-11T13:09:25.149Z,77.99
2023-02-11T13:13:01.275Z,78.42
2023-02-11T13:16:15.044Z,78.55
2023-02-11T13:19:27.631Z,78.27
2023-02-11T13:22:34.630Z,78.69
2023-02-11T13:25:45.229Z,77.58
2023-02-11T13:28:55.368Z,77.71
2023-02-11T13:32:08.875Z,77.20
2023-02-11T13:35:31.790Z,78.63
2023-02-11T13:38:37.746Z,77.72
2023-02-11T13:41:51.580Z,77.56
2023-02-11T13:45:02.377Z,78.81
2023-02-11T13:48:24.243Z,78.43
2023-02-11T13:51:38.938Z,78.17
2023-02-11T13:55:00.755Z,78.62
2023-02-11T13:58:20.203Z,78.99
2023-02-11T14:02:13.302Z,79.11
2023-02-11T14:05:44.634Z,78.22
2023-02-11T14:09:08.976Z,77.04
2023-02-11T14:12:40.957Z,78.84
2023-02-11T14:16:08.072Z,79.72
2023-02-11T14:19:31.689Z,78.69
2023-02-11T14:22:45.544Z,78.57
2023-02-11T14:26:27.862Z,78.90
2023-02-11T14:29:39.475Z,78.46
2023-02-11T14:32:53.365Z,79.40
2023-02-11T14:36:06.775Z,78.59
2023-02-11T14:39:19.490Z,80.00
2023-02-11T14:42:35.889Z,79.80
2023-02-11T14:46:02.457Z,79.90
2023-02-11T14:49:19.463Z,80.08
2023-02-11T14:52:45.409Z,78.92
2023-02-11T14:55:52.534Z,78.64
2023-02-11T14:59:01.696Z,79.42
2023-02-11T15:02:23.819Z,78.81
2023-02-11T15:05:30.051Z,79.40
2023-02-11T15:09:00.886Z,78.48
2023-02-11T15:12:27.200Z,77.76
2023-02-11T15:15:55.807Z,76.62
2023-02-11T15:19:24.395Z,76.05
2023-02-11T15:22:54.270Z,75.86
2023-02-11T15:26:22.677Z,76.48
2023-02-11T15:29:40.168Z,77.01
2023-02-11T15:33:00.490Z,75.83
2023-02-11T15:36:16.713Z,75.07
2023-02-11T15:39:43.191Z,75.08
2023-02-11T15:43:10.236Z,74.60
2023-02-11T15:46:38.962Z,75.86
2023-02-11T15:49:54.758Z,76.21
2023-02-11T15:53:07.043Z,76.90
2023-02-11T15:56:20.438Z,78.12
2023-02-11T15:59:49.395Z,78.04
2023-02-11T16:02:57.579Z,75.72
2023-02-11T16:06:20.071Z,76.39
2023-02-11T16:09:34.050Z,76.58
2023-02-11T16:12:39.452Z,74.69
2023-02-11T16:15:47.548Z,75.54
2023-02-11T16:19:05.975Z,74.76
2023-02-11T16:22:12.994Z,76.62
2023-02-11T16:25:19.883Z,77.11
2023-02-11T16:28:25.624Z,75.43
2023-02-11T16:31:37.901Z,74.97
2023-02-11T16:34:43.501Z,72.97
2023-02-11T16:37:49.096Z,71.95
2023-02-11T16:40:56.741Z,71.19
2023-02-11T16:44:02.414Z,72.30
2023-02-11T16:47:08.741Z,74.40
2023-02-11T16:50:21.809Z,74.35
2023-02-11T16:53:27.337Z,73.95
2023-02-11T16:56:35.916Z,75.61
2023-02-11T16:59:41.391Z,75.98
2023-02-11T17:02:47.017Z,75.12
2023-02-11T17:06:03.272Z,75.81
2023-02-11T17:09:10.897Z,76.36
2023-02-11T17:12:16.554Z,75.03
2023-02-11T17:15:22.139Z,74.81
2023-02-11T17:18:28.157Z,74.90
2023-02-11T17:21:33.614Z,74.28
2023-02-11T17:24:49.147Z,74.90
2023-02-11T17:27:54.930Z,74.57
2023-02-11T17:31:02.767Z,74.41
2023-02-11T17:34:19.192Z,74.30
2023-02-11T17:37:24.782Z,73.77
2023-02-11T17:40:30.485Z,74.44
2023-02-11T17:43:35.982Z,75.74
2023-02-11T17:46:44.953Z,75.31
2023-02-11T17:49:50.477Z,74.53
2023-02-11T17:52:55.997Z,74.33
2023-02-11T17:56:06.391Z,73.77
2023-02-11T17:59:13.295Z,74.22
2023-02-11T18:02:21.965Z,74.42
2023-02-11T18:05:34.426Z,74.49
2023-02-11T18:08:57.569Z,75.01
2023-02-11T18:12:05.920Z,74.67
2023-02-11T18:15:14.457Z,75.70
2023-02-11T18:18:40.066Z,74.46
2023-02-11T18:21:48.883Z,74.27
2023-02-11T18:24:56.943Z,74.37
2023-02-11T18:28:12.415Z,74.54
2023-02-11T18:31:18.495Z,74.73
2023-02-11T18:34:27.191Z,74.91
2023-02-11T18:37:32.693Z,75.01
2023-02-11T18:40:41.683Z,74.78
2023-02-11T18:44:07.432Z,76.44
2023-02-11T18:47:15.735Z,76.95
2023-02-11T18:50:43.344Z,75.73
2023-02-11T18:53:59.806Z,76.76
2023-02-11T18:57:05.186Z,75.87
2023-02-11T19:00:14.151Z,76.46
2023-02-11T19:03:32.164Z,75.98
2023-02-11T19:06:38.698Z,75.99
2023-02-11T19:09:44.633Z,76.54
2023-02-11T19:13:10.999Z,76.21
2023-02-11T19:16:20.036Z,75.38
2023-02-11T19:19:28.373Z,77.01
2023-02-11T19:22:33.993Z,76.73
2023-02-11T19:25:59.681Z,75.97
2023-02-11T19:29:05.133Z,76.63
2023-02-11T19:32:13.330Z,76.72
2023-02-11T19:35:30.089Z,75.34
2023-02-11T19:38:35.642Z,75.60
2023-02-11T19:41:43.964Z,75.33
2023-02-11T19:44:49.680Z,74.67
2023-02-11T19:47:58.641Z,73.41
2023-02-11T19:51:12.823Z,72.81
2023-02-11T19:54:30.284Z,72.69
2023-02-11T19:57:37.150Z,72.65
2023-02-11T20:00:43.113Z,72.41
2023-02-11T20:03:58.553Z,72.09
2023-02-11T20:07:04.289Z,73.43
2023-02-11T20:10:22.619Z,73.66
2023-02-11T20:13:29.774Z,73.07
2023-02-11T20:16:49.863Z,71.44
2023-02-11T20:19:55.803Z,71.94
2023-02-11T20:23:01.196Z,71.12
2023-02-11T20:26:11.182Z,69.69
2023-02-11T20:29:16.900Z,69.81
2023-02-11T20:32:42.461Z,69.32
2023-02-11T20:36:00.101Z,69.07
2023-02-11T20:39:18.716Z,69.48
2023-02-11T20:42:44.511Z,68.98
2023-02-11T20:46:10.560Z,68.89
2023-02-11T20:49:20.215Z,69.80
2023-02-11T20:52:39.805Z,70.55
2023-02-11T20:56:06.685Z,71.03
2023-02-11T20:59:21.022Z,70.17
2023-02-11T21:02:30.421Z,69.47
2023-02-11T21:05:36.168Z,68.50
2023-02-11T21:08:52.675Z,68.46
2023-02-11T21:12:18.275Z,69.58
2023-02-11T21:15:33.836Z,68.97
2023-02-11T21:18:50.017Z,70.70
2023-02-11T21:21:57.515Z,71.75
2023-02-11T21:25:09.048Z,72.67
2023-02-11T21:28:27.355Z,74.04
2023-02-11T21:31:53.642Z,73.79
2023-02-11T21:35:02.381Z,73.35
2023-02-11T21:38:28.636Z,73.03
2023-02-11T21:41:56.044Z,72.84
2023-02-11T21:45:21.761Z,73.56
2023-02-11T21:48:27.653Z,72.69
2023-02-11T21:51:35.404Z,72.56
2023-02-11T21:54:51.972Z,70.83
2023-02-11T21:58:18.219Z,70.88
2023-02-11T22:01:35.402Z,69.90
2023-02-11T22:04:51.225Z,68.77
2023-02-11T22:07:58.842Z,68.54
2023-02-11T22:11:09.967Z,68.48
2023-02-11T22:14:16.127Z,67.34
2023-02-11T22:17:24.790Z,66.28
2023-02-11T22:20:59.684Z,64.72
2023-02-11T22:24:15.440Z,64.77
2023-02-11T22:27:21.020Z,65.31
2023-02-11T22:30:26.665Z,64.48
2023-02-11T22:33:34.826Z,65.31
2023-02-11T22:36:47.032Z,66.17
2023-02-11T22:39:52.639Z,66.12
2023-02-11T22:42:58.129Z,66.10
2023-02-11T22:46:23.743Z,66.82
2023-02-11T22:49:49.611Z,67.56
2023-02-11T22:52:55.317Z,68.19
2023-02-11T22:56:04.567Z,67.98
2023-02-11T22:59:14.471Z,67.34
2023-02-11T23:02:22.451Z,67.53
2023-02-11T23:05:46.854Z,66.78
2023-02-11T23:08:55.328Z,66.58
2023-02-11T23:12:20.944Z,66.27
2023-02-11T23:15:47.667Z,64.25
2023-02-11T23:19:14.483Z,63.97
2023-02-11T23:22:42.389Z,64.12
2023-02-11T23:26:10.360Z,63.88
2023-02-11T23:29:36.028Z,64.87
2023-02-11T23:33:01.551Z,65.18
2023-02-11T23:36:27.311Z,65.53
2023-02-11T23:39:53.052Z,65.24
2023-02-11T23:43:18.935Z,65.04
2023-02-11T23:47:31.875Z,64.59
2023-02-11T23:50:32.715Z,63.69
2023-02-11T23:53:58.385Z,64.47
2023-02-11T23:57:24.372Z,66.28
